Time;durP1;ratioP1;P1;durP2;ratioP2;P2;SDS_P1;SDS_P2;PMS_P1;PMS_P2;Temp;Humidity;BMP_temperature;BMP_pressure;BME280_temperature;BME280_humidity;BME280_pressure;Samples;Min_cycle;Max_cycle;Signal;HPM_P1;HPM_P2
2023/04/12 00:00:31;;;;;;;7.50;5.40;;;;;;;7.63;82.96;99536.55;131253;1253;107622;-76
2023/04/12 00:03:53;;;;;;;8.90;6.20;;;;;;;7.61;83.28;99532.15;131172;1253;108793;-77
2023/04/12 00:06:59;;;;;;;9.40;6.50;;;;;;;7.57;84.65;99526.11;131262;1253;107274;-77
2023/04/12 00:10:06;;;;;;;8.70;6.30;;;;;;;7.56;83.95;99516.00;131260;1249;107311;-77
2023/04/12 00:13:12;;;;;;;10.50;7.20;;;;;;;7.53;84.09;99519.11;131287;1253;105684;-76
2023/04/12 00:16:17;;;;;;;9.60;6.00;;;;;;;7.51;84.48;99519.55;131283;1250;106506;-75
2023/04/12 00:19:26;;;;;;;7.80;5.70;;;;;;;7.51;84.11;99514.17;131099;1251;107609;-77
2023/04/12 00:22:31;;;;;;;10.00;7.10;;;;;;;7.57;84.29;99518.08;131234;1253;107249;-77
2023/04/12 00:25:38;;;;;;;10.90;7.60;;;;;;;7.60;84.39;99515.92;131178;1254;107322;-77
2023/04/12 00:28:44;;;;;;;9.60;7.30;;;;;;;7.65;83.09;99516.89;131126;1254;107229;-77
2023/04/12 00:31:50;;;;;;;9.50;6.80;;;;;;;7.75;82.82;99520.46;131144;1253;173403;-77
2023/04/12 00:34:56;;;;;;;9.30;6.40;;;;;;;7.79;82.65;99521.47;131384;1253;107509;-77
2023/04/12 00:38:02;;;;;;;8.50;5.90;;;;;;;7.84;82.69;99521.33;131095;1251;107246;-76
2023/04/12 00:41:08;;;;;;;9.90;6.80;;;;;;;7.83;82.81;99522.52;131285;1254;107224;-76
2023/04/12 00:44:16;;;;;;;9.00;6.20;;;;;;;7.79;83.41;99523.73;131185;1251;107316;-76
2023/04/12 00:47:22;;;;;;;10.10;6.50;;;;;;;7.81;82.91;99518.77;131187;1249;107399;-76
2023/04/12 00:50:27;;;;;;;8.20;6.70;;;;;;;7.87;82.39;99515.88;131120;1251;107519;-77
2023/04/12 00:53:35;;;;;;;8.50;5.80;;;;;;;7.93;82.11;99507.22;131506;1248;107332;-77
2023/04/12 00:56:43;;;;;;;7.70;5.20;;;;;;;7.99;82.44;99498.61;131468;1251;107512;-74
2023/04/12 00:59:50;;;;;;;8.60;6.10;;;;;;;7.93;82.96;99485.55;131403;1253;107721;-75
2023/04/12 01:02:55;;;;;;;8.60;6.20;;;;;;;7.86;83.16;99480.09;131298;1256;106783;-75
2023/04/12 01:06:13;;;;;;;8.80;6.40;;;;;;;7.77;83.68;99469.85;131395;1253;107586;-76
2023/04/12 01:09:32;;;;;;;9.10;6.40;;;;;;;7.64;83.75;99465.48;131181;1253;107501;-76
2023/04/12 01:12:47;;;;;;;9.80;6.50;;;;;;;7.55;84.68;99467.59;131457;1253;107365;-76
2023/04/12 01:16:03;;;;;;;9.10;6.00;;;;;;;7.44;84.65;99467.39;131299;1251;107496;-76
2023/04/12 01:19:29;;;;;;;9.60;7.00;;;;;;;7.37;85.44;99467.77;131070;1263;107472;-76
2023/04/12 01:22:51;;;;;;;8.40;6.50;;;;;;;7.32;85.21;99467.34;131042;1251;107223;-76
2023/04/12 01:26:20;;;;;;;9.60;6.90;;;;;;;7.31;85.54;99468.54;131176;1253;107376;-75
2023/04/12 01:29:29;;;;;;;8.70;6.20;;;;;;;7.28;84.86;99475.52;131333;1248;107230;-76
2023/04/12 01:32:37;;;;;;;9.00;6.10;;;;;;;7.25;85.78;99482.38;131350;1254;107359;-76
2023/04/12 01:35:44;;;;;;;10.40;6.50;;;;;;;7.24;85.21;99480.73;131087;1253;107496;-76
2023/04/12 01:38:50;;;;;;;10.10;7.20;;;;;;;7.28;85.66;99484.20;131149;1251;107521;-77
2023/04/12 01:41:56;;;;;;;11.40;7.70;;;;;;;7.33;85.31;99489.25;131357;1251;106284;-77
2023/04/12 01:45:02;;;;;;;10.10;7.40;;;;;;;7.37;85.16;99486.48;131217;1256;107484;-77
2023/04/12 01:48:09;;;;;;;9.50;6.40;;;;;;;7.41;84.42;99483.15;131015;1251;107497;-76
2023/04/12 01:51:25;;;;;;;10.00;6.80;;;;;;;7.41;84.81;99479.89;131081;1253;107273;-76
2023/04/12 01:54:34;;;;;;;12.50;8.30;;;;;;;7.49;85.44;99482.71;131204;1254;106548;-76
2023/04/12 01:57:43;;;;;;;11.40;8.00;;;;;;;7.53;84.64;99484.26;131319;1253;107521;-77
2023/04/12 02:00:50;;;;;;;12.30;8.50;;;;;;;7.59;84.87;99478.17;131281;1256;106679;-77
2023/04/12 02:03:58;;;;;;;13.70;9.60;;;;;;;7.59;84.81;99471.48;131473;1253;107528;-76
2023/04/12 02:07:08;;;;;;;12.70;8.10;;;;;;;7.55;85.54;99472.20;131405;1254;107462;-75
2023/04/12 02:10:16;;;;;;;13.10;8.60;;;;;;;7.53;85.23;99475.23;131357;1254;107433;-74
2023/04/12 02:13:21;;;;;;;15.00;10.30;;;;;;;7.51;86.55;99470.27;131383;1253;107222;-75
2023/04/12 02:16:28;;;;;;;15.00;10.30;;;;;;;7.52;85.81;99459.06;131444;1253;107478;-74
2023/04/12 02:19:34;;;;;;;16.10;11.30;;;;;;;7.54;86.57;99451.92;131476;1253;107453;-75
2023/04/12 02:22:40;;;;;;;16.40;11.00;;;;;;;7.53;86.23;99453.46;131313;1254;107369;-75
2023/04/12 02:25:46;;;;;;;16.30;11.10;;;;;;;7.47;87.75;99454.08;131241;1254;107527;-75
2023/04/12 02:28:52;;;;;;;16.70;10.90;;;;;;;7.42;87.02;99454.54;131381;1253;107441;-75
2023/04/12 02:31:58;;;;;;;18.80;12.20;;;;;;;7.46;86.77;99457.09;131423;1253;107504;-76
2023/04/12 02:35:07;;;;;;;20.50;13.10;;;;;;;7.52;87.09;99460.64;131436;1253;107625;-75
2023/04/12 02:38:13;;;;;;;18.10;12.80;;;;;;;7.53;87.17;99459.09;131492;1254;107523;-73
2023/04/12 02:41:20;;;;;;;20.00;14.20;;;;;;;7.53;87.08;99463.87;131403;1252;107461;-73
2023/04/12 02:44:28;;;;;;;18.40;12.60;;;;;;;7.55;87.15;99462.88;131336;1254;108613;-75
2023/04/12 02:47:47;;;;;;;18.00;12.10;;;;;;;7.54;87.18;99468.55;131221;1251;107502;-73
2023/04/12 02:50:52;;;;;;;21.40;13.90;;;;;;;7.54;87.08;99471.22;131394;1253;108470;-72
2023/04/12 02:54:01;;;;;;;21.20;13.80;;;;;;;7.59;86.89;99476.21;133001;1247;107441;-73
2023/04/12 02:57:11;;;;;;;20.40;14.50;;;;;;;7.67;86.53;99477.58;135296;1248;107531;-73
2023/04/12 03:00:21;;;;;;;22.00;13.30;;;;;;;7.76;86.35;99481.96;133080;1248;107243;-72
2023/04/12 03:03:35;;;;;;;19.10;12.80;;;;;;;7.77;86.82;99483.83;131511;1253;107328;-72
2023/04/12 03:06:52;;;;;;;21.20;14.90;;;;;;;7.75;86.69;99484.20;131461;1249;107263;-72
2023/04/12 03:10:03;;;;;;;22.00;15.20;;;;;;;7.78;86.34;99484.77;131514;1254;107558;-74
2023/04/12 03:13:10;;;;;;;21.40;15.10;;;;;;;7.85;86.12;99486.52;131411;1254;107565;-72
2023/04/12 03:16:28;;;;;;;21.10;16.10;;;;;;;7.85;86.70;99483.34;131323;1253;107397;-72
2023/04/12 03:19:41;;;;;;;21.50;14.80;;;;;;;7.78;87.10;99481.52;131178;1250;107472;-73
2023/04/12 03:22:47;;;;;;;20.80;14.00;;;;;;;7.67;87.93;99482.69;131371;1253;106396;-73
2023/04/12 03:25:53;;;;;;;21.10;15.20;;;;;;;7.62;87.13;99484.90;131275;1253;107566;-73
2023/04/12 03:29:09;;;;;;;22.50;15.20;;;;;;;7.66;86.95;99481.72;131247;1253;107375;-74
2023/04/12 03:32:15;;;;;;;23.90;16.20;;;;;;;7.67;87.13;99475.60;131269;1253;107453;-74
2023/04/12 03:35:22;;;;;;;22.70;16.40;;;;;;;7.65;86.86;99475.56;131227;1253;107484;-72
2023/04/12 03:38:28;;;;;;;21.00;14.50;;;;;;;7.65;87.39;99475.27;131162;1264;107533;-70
2023/04/12 03:41:35;;;;;;;20.60;13.70;;;;;;;7.61;87.40;99475.64;131253;1251;107435;-73
2023/04/12 03:44:42;;;;;;;21.70;15.30;;;;;;;7.56;87.92;99479.84;131182;1254;106535;-73
2023/04/12 03:47:50;;;;;;;22.10;15.60;;;;;;;7.57;87.84;99479.59;131203;1253;107523;-74
2023/04/12 03:50:58;;;;;;;21.80;15.80;;;;;;;7.61;87.21;99481.89;131167;1253;107415;-74
2023/04/12 03:54:06;;;;;;;21.80;16.10;;;;;;;7.64;87.61;99478.41;131138;1253;107328;-74
2023/04/12 03:57:26;;;;;;;22.00;15.20;;;;;;;7.60;87.50;99477.33;131107;1256;107500;-73
2023/04/12 04:00:32;;;;;;;21.20;13.40;;;;;;;7.55;88.24;99475.98;131048;1256;107366;-75
2023/04/12 04:03:41;;;;;;;21.10;14.80;;;;;;;7.54;87.87;99472.65;131257;1249;107508;-73
2023/04/12 04:06:56;;;;;;;22.20;15.00;;;;;;;7.55;87.82;99472.00;131231;1261;107498;-73
2023/04/12 04:10:04;;;;;;;22.10;15.90;;;;;;;7.57;87.66;99472.83;131362;1256;107519;-72
2023/04/12 04:13:11;;;;;;;19.20;13.30;;;;;;;7.58;87.94;99471.70;131375;1253;107399;-73
2023/04/12 04:16:17;;;;;;;18.00;12.90;;;;;;;7.60;87.46;99472.90;131323;1265;107512;-72
2023/04/12 04:19:23;;;;;;;20.20;14.90;;;;;;;7.66;87.90;99471.99;131386;1253;107446;-72
2023/04/12 04:22:29;;;;;;;21.90;15.50;;;;;;;7.69;87.51;99474.38;131496;1253;107591;-73
2023/04/12 04:25:38;;;;;;;21.10;14.80;;;;;;;7.73;87.45;99480.34;131409;1255;107560;-73
2023/04/12 04:28:45;;;;;;;19.30;14.80;;;;;;;7.80;87.27;99480.50;131144;1266;107455;-73
2023/04/12 04:31:52;;;;;;;17.60;12.10;;;;;;;7.84;86.90;99481.64;131011;1254;107379;-74
2023/04/12 04:34:59;;;;;;;20.00;11.90;;;;;;;7.92;86.86;99485.46;131098;1261;107446;-75
2023/04/12 04:38:06;;;;;;;18.20;13.80;;;;;;;7.92;87.06;99490.34;131238;1254;107404;-74
2023/04/12 04:41:13;;;;;;;20.40;13.80;;;;;;;7.92;86.89;99492.47;131157;1255;107635;-73
2023/04/12 04:44:26;;;;;;;19.80;14.70;;;;;;;7.93;86.97;99490.92;131164;1253;107446;-73
2023/04/12 04:47:35;;;;;;;19.40;14.60;;;;;;;7.90;87.11;99495.41;131347;1254;107497;-72
2023/04/12 04:50:41;;;;;;;20.20;13.40;;;;;;;7.92;87.07;99499.14;131440;1254;107436;-72
2023/04/12 04:53:46;;;;;;;17.10;12.10;;;;;;;7.91;87.22;99500.14;131177;1254;107465;-74
2023/04/12 04:56:52;;;;;;;18.70;14.20;;;;;;;7.89;87.26;99500.86;131158;1253;108731;-73
2023/04/12 04:59:59;;;;;;;20.10;14.20;;;;;;;7.90;87.03;99499.20;131245;1263;107535;-74
2023/04/12 05:03:04;;;;;;;17.80;13.50;;;;;;;7.95;87.03;99506.95;131423;1254;107765;-72
2023/04/12 05:06:10;;;;;;;18.50;14.00;;;;;;;7.97;86.83;99508.37;131392;1253;107470;-72
2023/04/12 05:09:16;;;;;;;26.70;17.90;;;;;;;7.97;87.29;99504.60;131401;1253;107400;-73
2023/04/12 05:12:26;;;;;;;20.10;14.00;;;;;;;7.93;87.66;99501.52;131169;1253;106454;-75
2023/04/12 05:15:33;;;;;;;20.40;14.90;;;;;;;7.90;87.73;99499.52;131261;1261;107411;-72
2023/04/12 05:18:40;;;;;;;19.50;15.00;;;;;;;7.96;87.32;99500.02;131120;1256;107595;-72
2023/04/12 05:21:45;;;;;;;19.60;14.00;;;;;;;8.02;87.22;99497.26;131076;1253;107631;-72
2023/04/12 05:24:51;;;;;;;18.80;13.60;;;;;;;8.05;87.12;99501.33;131086;1255;107629;-73
2023/04/12 05:27:57;;;;;;;16.80;11.90;;;;;;;8.05;87.42;99504.33;131097;1257;107485;-72
2023/04/12 05:31:04;;;;;;;16.60;11.30;;;;;;;8.04;87.52;99505.39;131211;1253;107429;-74
2023/04/12 05:34:13;;;;;;;16.20;11.60;;;;;;;8.03;87.07;99507.70;131068;1264;106413;-74
2023/04/12 05:37:26;;;;;;;17.40;13.00;;;;;;;8.10;87.22;99504.00;131046;1256;107502;-73
2023/04/12 05:40:32;;;;;;;18.90;13.10;;;;;;;8.13;86.92;99508.84;131197;1255;107535;-73
2023/04/12 05:43:38;;;;;;;17.30;13.30;;;;;;;8.18;86.77;99516.34;131178;1252;108592;-74
2023/04/12 05:46:44;;;;;;;14.70;11.00;;;;;;;8.22;86.67;99518.63;131300;1254;107388;-71
2023/04/12 05:49:50;;;;;;;16.00;9.80;;;;;;;8.23;86.62;99516.84;131143;1261;107568;-74
2023/04/12 05:52:57;;;;;;;17.20;11.90;;;;;;;8.31;86.51;99515.92;131251;1254;107514;-74
2023/04/12 05:56:09;;;;;;;16.10;12.50;;;;;;;8.46;86.53;99523.05;131230;1261;107527;-73
2023/04/12 05:59:15;;;;;;;17.10;12.60;;;;;;;8.51;86.14;99522.92;131147;1257;107451;-73
2023/04/12 06:02:21;;;;;;;17.80;13.00;;;;;;;8.44;86.19;99526.46;131263;1248;107525;-73
2023/04/12 06:05:26;;;;;;;16.60;13.20;;;;;;;8.35;86.18;99520.30;131136;1258;109142;-74
2023/04/12 06:08:33;;;;;;;29.20;19.40;;;;;;;8.28;86.66;99521.33;131085;1254;107517;-74
2023/04/12 06:11:39;;;;;;;22.00;15.20;;;;;;;8.20;86.77;99521.24;131170;1254;107510;-73
2023/04/12 06:14:45;;;;;;;26.20;20.70;;;;;;;8.18;87.03;99521.15;131244;1253;107406;-73
2023/04/12 06:17:51;;;;;;;23.70;17.30;;;;;;;8.20;87.09;99526.77;131154;1256;105724;-73
2023/04/12 06:20:57;;;;;;;21.00;16.90;;;;;;;8.22;86.74;99530.48;131116;1257;107551;-73
2023/04/12 06:24:02;;;;;;;83.00;64.60;;;;;;;8.27;86.56;99530.09;131127;1261;106485;-74
2023/04/12 06:27:08;;;;;;;21.20;16.20;;;;;;;8.26;86.97;99529.68;131020;1257;107290;-74
2023/04/12 06:30:14;;;;;;;19.60;14.90;;;;;;;8.20;86.96;99529.44;131140;1253;107507;-73
2023/04/12 06:33:21;;;;;;;41.40;27.00;;;;;;;8.19;87.39;99528.83;131116;1254;107488;-73
2023/04/12 06:36:27;;;;;;;23.00;16.40;;;;;;;8.13;87.24;99528.30;131037;1257;107558;-73
2023/04/12 06:39:33;;;;;;;26.70;20.90;;;;;;;8.14;87.09;99526.48;131202;1253;107430;-73
2023/04/12 06:42:38;;;;;;;26.60;19.30;;;;;;;8.23;87.00;99523.98;131169;1253;107433;-74
2023/04/12 06:45:44;;;;;;;44.20;28.30;;;;;;;8.23;87.14;99521.63;131203;1254;107339;-72
2023/04/12 06:48:50;;;;;;;21.20;14.30;;;;;;;8.19;87.08;99518.83;131424;1261;106741;-72
2023/04/12 06:51:55;;;;;;;31.70;23.10;;;;;;;8.22;86.84;99523.38;131331;1259;107424;-72
2023/04/12 06:55:01;;;;;;;30.90;24.10;;;;;;;8.25;86.95;99525.12;131238;1261;107496;-73
2023/04/12 06:58:06;;;;;;;17.40;13.00;;;;;;;8.27;86.97;99526.04;131217;1254;107240;-72
2023/04/12 07:01:13;;;;;;;26.50;20.30;;;;;;;8.29;87.27;99525.88;131279;1263;107514;-72
2023/04/12 07:04:18;;;;;;;22.50;17.60;;;;;;;8.24;86.88;99524.15;131412;1261;106278;-72
2023/04/12 07:07:24;;;;;;;17.70;12.90;;;;;;;8.23;87.19;99523.42;131401;1251;108569;-71
2023/04/12 07:10:29;;;;;;;16.00;11.70;;;;;;;8.26;87.08;99523.11;131505;1253;107520;-73
2023/04/12 07:13:35;;;;;;;23.60;16.90;;;;;;;8.31;86.99;99528.65;131326;1254;107531;-73
2023/04/12 07:16:40;;;;;;;24.00;18.60;;;;;;;8.42;86.99;99525.91;131254;1251;107572;-74
2023/04/12 07:19:47;;;;;;;23.80;17.30;;;;;;;8.49;86.76;99520.55;131141;1253;107488;-72
2023/04/12 07:22:53;;;;;;;34.70;24.10;;;;;;;8.54;86.77;99522.14;131109;1261;107385;-73
2023/04/12 07:26:02;;;;;;;18.10;13.80;;;;;;;8.60;86.68;99524.30;131292;1261;107451;-74
2023/04/12 07:29:07;;;;;;;45.40;30.50;;;;;;;8.57;86.31;99524.84;131205;1254;106619;-73
2023/04/12 07:32:13;;;;;;;23.80;17.60;;;;;;;8.61;86.77;99520.48;131148;1260;106596;-73
2023/04/12 07:35:19;;;;;;;100.00;54.10;;;;;;;8.71;86.43;99521.95;131162;1255;105931;-72
2023/04/12 07:38:24;;;;;;;44.40;23.50;;;;;;;8.76;86.38;99523.88;131187;1252;107247;-72
2023/04/12 07:41:30;;;;;;;41.00;23.30;;;;;;;8.82;86.34;99523.46;131298;1248;107516;-72
2023/04/12 07:44:35;;;;;;;93.90;60.60;;;;;;;8.81;85.96;99528.70;131353;1263;107530;-72
2023/04/12 07:47:41;;;;;;;67.00;47.80;;;;;;;8.80;86.31;99527.17;131277;1260;107319;-74
2023/04/12 07:50:46;;;;;;;26.00;19.50;;;;;;;8.87;86.12;99521.40;131141;1254;106574;-74
2023/04/12 07:53:52;;;;;;;19.90;14.30;;;;;;;8.99;86.29;99519.05;131274;1256;107546;-74
2023/04/12 07:57:02;;;;;;;25.50;16.70;;;;;;;9.13;86.08;99519.13;131460;1254;107530;-74
2023/04/12 08:00:10;;;;;;;19.80;13.30;;;;;;;9.27;85.45;99519.80;131433;1251;107306;-73
2023/04/12 08:03:20;;;;;;;15.50;11.60;;;;;;;9.31;85.47;99518.11;131614;1251;107390;-75
2023/04/12 08:06:25;;;;;;;28.50;20.00;;;;;;;9.32;85.13;99513.25;131259;1263;107839;-75
2023/04/12 08:09:31;;;;;;;14.00;10.50;;;;;;;9.29;85.04;99515.88;131398;1253;106263;-74
2023/04/12 08:12:36;;;;;;;15.90;11.70;;;;;;;9.30;85.00;99515.77;131253;1251;107618;-72
2023/04/12 08:15:43;;;;;;;12.70;10.50;;;;;;;9.30;84.70;99519.90;131323;1248;107228;-73
2023/04/12 08:18:49;;;;;;;17.70;14.10;;;;;;;9.44;85.20;99521.20;131241;1264;107347;-71
2023/04/12 08:21:54;;;;;;;14.50;11.60;;;;;;;9.56;84.82;99518.55;131275;1254;107483;-72
2023/04/12 08:25:00;;;;;;;14.50;11.10;;;;;;;9.56;84.72;99517.77;131428;1253;107395;-72
2023/04/12 08:28:07;;;;;;;13.70;10.70;;;;;;;9.70;85.14;99519.16;131314;1253;107511;-72
2023/04/12 08:31:12;;;;;;;13.40;9.40;;;;;;;9.86;84.64;99519.03;131091;1254;107419;-72
2023/04/12 08:34:19;;;;;;;12.20;9.30;;;;;;;9.97;84.12;99513.50;131154;1254;108590;-73
2023/04/12 08:37:25;;;;;;;14.30;9.40;;;;;;;10.06;83.04;99514.34;131128;1251;105493;-72
2023/04/12 08:40:30;;;;;;;14.80;10.80;;;;;;;10.13;83.22;99515.02;131511;1251;107350;-72
2023/04/12 08:43:36;;;;;;;12.20;9.90;;;;;;;10.18;83.10;99515.35;131483;1253;109235;-72
2023/04/12 08:46:42;;;;;;;11.70;9.40;;;;;;;10.38;83.86;99522.41;131415;1254;107517;-72
2023/04/12 08:49:48;;;;;;;14.90;10.90;;;;;;;10.67;83.62;99524.24;131388;1254;107261;-73
2023/04/12 08:52:55;;;;;;;13.40;10.70;;;;;;;10.76;82.86;99521.55;131362;1261;107416;-72
2023/04/12 08:56:01;;;;;;;14.70;11.40;;;;;;;10.88;82.91;99523.43;131447;1252;108219;-72
2023/04/12 08:59:07;;;;;;;16.90;12.60;;;;;;;10.93;82.24;99517.67;131354;1251;107593;-72
2023/04/12 09:02:15;;;;;;;15.10;10.90;;;;;;;11.11;82.63;99513.19;131327;1261;107247;-72
2023/04/12 09:05:26;;;;;;;17.90;13.20;;;;;;;11.38;82.79;99512.23;131281;1248;107634;-72
2023/04/12 09:08:32;;;;;;;12.80;10.10;;;;;;;11.65;81.77;99506.67;131506;1254;107348;-72
2023/04/12 09:11:37;;;;;;;14.20;11.20;;;;;;;11.99;82.04;99497.03;131348;1248;107566;-72
2023/04/12 09:14:43;;;;;;;13.10;10.30;;;;;;;12.23;79.35;99496.38;131347;1248;107241;-72
2023/04/12 09:17:49;;;;;;;12.90;10.70;;;;;;;12.29;80.72;99491.84;131150;1251;107281;-73
2023/04/12 09:21:08;;;;;;;10.80;9.20;;;;;;;12.46;80.18;99490.52;131393;1254;108737;-72
2023/04/12 09:24:13;;;;;;;12.30;10.30;;;;;;;12.51;77.78;99488.02;131497;1250;107951;-72
2023/04/12 09:27:20;;;;;;;12.80;10.30;;;;;;;12.51;78.38;99492.59;131390;1254;107503;-73
2023/04/12 09:30:26;;;;;;;11.80;9.90;;;;;;;12.59;79.07;99498.47;131267;1261;107540;-72
2023/04/12 09:33:39;;;;;;;11.60;9.50;;;;;;;12.81;79.48;99497.24;131086;1254;107525;-72
2023/04/12 09:36:44;;;;;;;10.90;9.00;;;;;;;12.98;78.87;99499.08;131397;1251;107259;-72
2023/04/12 09:40:01;;;;;;;10.30;9.20;;;;;;;13.06;78.46;99500.08;131439;1253;107309;-73
2023/04/12 09:43:08;;;;;;;11.90;9.30;;;;;;;12.95;77.05;99498.07;131406;1253;107198;-72
2023/04/12 09:46:15;;;;;;;12.00;9.20;;;;;;;12.73;75.77;99498.98;131383;1254;107621;-72
2023/04/12 09:49:35;;;;;;;11.20;9.50;;;;;;;12.38;75.67;99500.80;131349;1252;107478;-72
2023/04/12 09:52:40;;;;;;;12.80;9.70;;;;;;;12.03;74.57;99501.00;131400;1251;107522;-71
2023/04/12 09:55:49;;;;;;;10.60;9.30;;;;;;;11.76;75.42;99494.10;133947;1248;107388;-72
2023/04/12 09:58:54;;;;;;;11.50;9.00;;;;;;;11.70;76.70;99483.25;131354;1251;107486;-73
2023/04/12 10:02:00;;;;;;;11.10;9.10;;;;;;;11.72;77.27;99482.86;131356;1253;107543;-72
2023/04/12 10:05:09;;;;;;;11.50;9.10;;;;;;;11.85;76.35;99481.11;131530;1254;107225;-73
2023/04/12 10:08:16;;;;;;;10.60;8.90;;;;;;;11.97;77.33;99480.89;131409;1254;107596;-72
2023/04/12 10:11:22;;;;;;;11.70;8.60;;;;;;;12.23;77.00;99485.11;131496;1250;106134;-72
2023/04/12 10:14:29;;;;;;;9.90;8.10;;;;;;;12.45;76.09;99483.84;131406;1254;107377;-72
2023/04/12 10:17:36;;;;;;;9.60;8.10;;;;;;;12.65;75.30;99478.60;131504;1251;108426;-72
2023/04/12 10:20:42;;;;;;;17.40;12.10;;;;;;;12.71;74.84;99480.10;131499;1254;107550;-72
2023/04/12 10:23:53;;;;;;;10.80;8.90;;;;;;;12.79;74.59;99477.12;131421;1253;107426;-72
2023/04/12 10:27:01;;;;;;;10.40;8.00;;;;;;;12.98;75.94;99467.89;131218;1251;107391;-74
2023/04/12 10:30:25;;;;;;;9.20;7.50;;;;;;;13.33;75.52;99468.01;131370;1252;107421;-73
2023/04/12 10:33:31;;;;;;;11.40;8.10;;;;;;;13.56;74.62;99465.77;131404;1253;105855;-73
2023/04/12 10:36:56;;;;;;;8.40;7.40;;;;;;;13.57;74.42;99465.77;131279;1248;106509;-73
2023/04/12 10:40:04;;;;;;;8.50;7.50;;;;;;;13.59;74.42;99462.70;131514;1253;107255;-73
2023/04/12 10:43:27;;;;;;;8.60;7.70;;;;;;;13.52;74.28;99468.94;131301;1254;107508;-72
2023/04/12 10:46:50;;;;;;;8.40;7.50;;;;;;;13.41;74.23;99469.08;131368;1254;107471;-72
2023/04/12 10:50:23;;;;;;;10.00;7.90;;;;;;;13.35;74.56;99468.07;131429;1254;107587;-75
2023/04/12 10:53:29;;;;;;;10.20;8.50;;;;;;;13.39;74.25;99469.06;131332;1251;107416;-73
2023/04/12 10:56:41;;;;;;;9.20;8.20;;;;;;;13.27;73.72;99466.73;131469;1254;107498;-73
2023/04/12 10:59:58;;;;;;;9.60;8.10;;;;;;;13.23;73.74;99465.32;131322;1254;105543;-73
2023/04/12 11:03:10;;;;;;;8.80;7.70;;;;;;;13.28;73.77;99461.98;131308;1253;107455;-73
2023/04/12 11:06:16;;;;;;;12.10;9.00;;;;;;;13.31;73.00;99462.06;131139;1251;107281;-73
2023/04/12 11:09:42;;;;;;;13.50;9.80;;;;;;;13.04;70.44;99459.09;131252;1252;105832;-73
2023/04/12 11:12:54;;;;;;;9.40;8.00;;;;;;;12.87;72.64;99462.06;131128;1253;107423;-73
2023/04/12 11:16:02;;;;;;;7.50;6.60;;;;;;;12.92;73.23;99456.73;131246;1254;107321;-74
2023/04/12 11:19:09;;;;;;;7.90;6.60;;;;;;;12.96;73.06;99457.85;131244;1254;106548;-73
2023/04/12 11:22:16;;;;;;;8.20;7.00;;;;;;;13.00;72.91;99456.34;131140;1251;107159;-73
2023/04/12 11:25:22;;;;;;;23.70;13.50;;;;;;;12.97;71.82;99450.31;131285;1253;107518;-73
2023/04/12 11:28:28;;;;;;;23.80;15.00;;;;;;;12.88;71.19;99449.23;131286;1251;107241;-73
2023/04/12 11:31:34;;;;;;;10.40;8.60;;;;;;;12.87;72.07;99452.73;131375;1249;107568;-73
2023/04/12 11:34:40;;;;;;;8.80;7.60;;;;;;;12.97;71.99;99448.91;131200;1253;106585;-73
2023/04/12 11:37:46;;;;;;;8.40;7.50;;;;;;;13.06;71.61;99450.30;131243;1251;107239;-72
2023/04/12 11:40:51;;;;;;;9.10;8.00;;;;;;;13.09;71.31;99449.52;131205;1261;106713;-72
2023/04/12 11:43:57;;;;;;;8.30;7.10;;;;;;;13.08;71.30;99451.56;131228;1253;107441;-73
2023/04/12 11:47:03;;;;;;;8.50;7.20;;;;;;;13.16;71.45;99444.80;131146;1254;107538;-73
2023/04/12 11:50:10;;;;;;;9.10;7.50;;;;;;;13.31;71.73;99448.48;131207;1254;107433;-72
2023/04/12 11:53:18;;;;;;;8.00;7.20;;;;;;;13.42;71.21;99441.83;131207;1254;107497;-72
2023/04/12 11:56:24;;;;;;;8.70;7.80;;;;;;;13.48;70.98;99436.02;131256;1248;108258;-72
2023/04/12 11:59:38;;;;;;;10.00;7.90;;;;;;;13.56;69.80;99439.08;131232;1251;107509;-72
2023/04/12 12:02:44;;;;;;;8.60;7.70;;;;;;;13.48;70.16;99426.21;131215;1250;107521;-72
2023/04/12 12:05:51;;;;;;;8.50;7.60;;;;;;;13.53;70.39;99425.29;131216;1254;105891;-72
2023/04/12 12:08:56;;;;;;;9.20;7.50;;;;;;;13.67;70.35;99425.04;131364;1253;107421;-72
2023/04/12 12:12:02;;;;;;;9.80;8.30;;;;;;;13.79;69.68;99422.45;131229;1259;107516;-72
2023/04/12 12:15:10;;;;;;;8.70;7.40;;;;;;;13.77;69.50;99418.02;131184;1253;108534;-72
2023/04/12 12:18:15;;;;;;;8.40;7.50;;;;;;;13.82;69.56;99412.98;131197;1254;106799;-72
2023/04/12 12:21:21;;;;;;;7.90;7.00;;;;;;;13.92;69.60;99405.46;131162;1254;107546;-72
2023/04/12 12:24:27;;;;;;;8.20;7.30;;;;;;;14.08;68.74;99400.45;131320;1253;107581;-72
2023/04/12 12:27:37;;;;;;;8.20;7.00;;;;;;;14.04;68.79;99400.35;131185;1253;107481;-72
2023/04/12 12:30:43;;;;;;;9.80;7.40;;;;;;;14.02;68.93;99392.40;131221;1253;105957;-72
2023/04/12 12:33:51;;;;;;;8.80;7.70;;;;;;;14.00;68.58;99385.47;131082;1254;107539;-72
2023/04/12 12:36:57;;;;;;;8.40;7.50;;;;;;;14.03;69.08;99378.11;131115;1248;107231;-72
2023/04/12 12:40:09;;;;;;;8.10;7.10;;;;;;;14.09;68.79;99377.27;131145;1260;107536;-74
2023/04/12 12:43:20;;;;;;;7.90;7.10;;;;;;;14.18;68.70;99374.75;131086;1254;107222;-73
2023/04/12 12:46:26;;;;;;;8.00;6.30;;;;;;;14.27;68.85;99374.13;131281;1254;107496;-72
2023/04/12 12:49:31;;;;;;;6.80;6.00;;;;;;;14.31;68.76;99378.21;131318;1253;107514;-72
2023/04/12 12:52:37;;;;;;;6.80;6.10;;;;;;;14.27;68.51;99377.20;131148;1251;107321;-72
2023/04/12 12:55:42;;;;;;;166.70;107.30;;;;;;;14.21;68.43;99372.92;131362;1254;107360;-73
2023/04/12 12:58:48;;;;;;;37.50;25.10;;;;;;;14.11;68.36;99368.48;131345;1250;107246;-72
2023/04/12 13:01:53;;;;;;;24.40;18.70;;;;;;;14.07;68.31;99366.12;131376;1254;107541;-72
2023/04/12 13:05:00;;;;;;;23.90;18.90;;;;;;;14.07;67.53;99364.34;131361;1253;106551;-73
2023/04/12 13:08:06;;;;;;;11.70;9.80;;;;;;;13.97;68.17;99362.05;131337;1254;107230;-72
2023/04/12 13:11:11;;;;;;;9.70;7.50;;;;;;;13.87;66.84;99360.13;131338;1254;105663;-73
2023/04/12 13:14:17;;;;;;;9.60;7.70;;;;;;;13.73;67.92;99357.06;131324;1253;107500;-72
2023/04/12 13:17:22;;;;;;;8.00;6.90;;;;;;;13.70;67.50;99355.93;131199;1253;107407;-73
2023/04/12 13:20:28;;;;;;;7.60;6.80;;;;;;;13.58;66.99;99350.57;131262;1253;107595;-72
2023/04/12 13:23:33;;;;;;;17.70;16.00;;;;;;;13.42;67.47;99348.54;131267;1248;107329;-72
2023/04/12 13:26:39;;;;;;;10.90;9.70;;;;;;;13.42;67.54;99347.84;131354;1250;107256;-72
2023/04/12 13:29:45;;;;;;;8.90;7.40;;;;;;;13.46;67.36;99344.58;131351;1251;107296;-73
2023/04/12 13:32:50;;;;;;;7.70;6.60;;;;;;;13.48;67.45;99342.77;131394;1253;107499;-72
2023/04/12 13:35:56;;;;;;;7.30;6.30;;;;;;;13.51;67.31;99343.79;131228;1252;107548;-72
2023/04/12 13:39:01;;;;;;;6.90;6.10;;;;;;;13.57;67.47;99337.99;131415;1249;107599;-73
2023/04/12 13:42:08;;;;;;;6.80;6.10;;;;;;;13.58;67.25;99333.77;131409;1250;107262;-72
2023/04/12 13:45:14;;;;;;;6.90;6.10;;;;;;;13.63;67.05;99331.17;131424;1254;107295;-73
2023/04/12 13:48:20;;;;;;;7.20;6.20;;;;;;;13.63;67.09;99327.10;131250;1253;106047;-72
2023/04/12 13:51:27;;;;;;;11.30;9.20;;;;;;;13.64;67.18;99326.20;131341;1251;107513;-72
2023/04/12 13:54:32;;;;;;;16.00;12.80;;;;;;;13.65;66.93;99327.15;131356;1253;107085;-73
2023/04/12 13:57:38;;;;;;;10.20;8.50;;;;;;;13.58;66.75;99324.71;131084;1251;107501;-73
2023/04/12 14:00:43;;;;;;;14.40;8.80;;;;;;;13.43;66.15;99324.40;131183;1253;107438;-72
2023/04/12 14:03:49;;;;;;;8.90;7.40;;;;;;;13.22;66.38;99323.32;131143;1253;107504;-72
2023/04/12 14:06:54;;;;;;;9.70;7.70;;;;;;;13.12;66.53;99324.19;131165;1254;105956;-72
2023/04/12 14:10:00;;;;;;;8.30;7.30;;;;;;;13.12;66.97;99325.92;131219;1251;107381;-72
2023/04/12 14:13:05;;;;;;;10.20;7.10;;;;;;;13.24;66.84;99327.55;131234;1253;107495;-73
2023/04/12 14:16:11;;;;;;;7.80;6.90;;;;;;;13.27;66.42;99330.21;131326;1253;105943;-72